KCTY

Cross City Airport

Cross City, Florida, USA
METAR KCTY 250055Z AUTO 07004KT 10SM SCT090 24/21 A3006 RMK AO2 LTG DSNT NE T02420212
Observed Flight Rules
May-25 @ 00:55 UTC (9 minutes ago) Visual Flight Rules
Wind Visibility Clouds
70° at 4 knots 10 miles
  • Scattered at 9,000' AGL
Temperatures Readings
Current 24°C / 75°F
Dewpoint 21°C / 70°F
Humidity 83%
Altimeter 30.06" Hg
Pressure 1018 hPa
Elevation 13
METAR KCTY 250055Z AUTO 07004KT 10SM SCT090 24/21 A3006 RMK AO2 LTG DSNT NE T02420212
Observed Flight Rules
May-25 @ 00:55 UTC
(9 minutes ago)
VFR
Wind Visibility
70° at 4 knots 10 miles
Clouds
  • Scattered at 9,000' AGL
Temperature Dewpoint
24°C / 75°F 21°C / 70°F
Humidity Altimeter Pressure
83% 30.06" Hg 1018 hPa